Time;durP1;ratioP1;P1;durP2;ratioP2;P2;SDS_P1;SDS_P2;PMS_P1;PMS_P2;Temp;Humidity;BMP_temperature;BMP_pressure;BME280_temperature;BME280_humidity;BME280_pressure;Samples;Min_cycle;Max_cycle;Signal;HPM_P1;HPM_P2
2022/06/08 00:01:37;;;;;;;;;;;16.50;56.30;;;;;;5115526;28;19916;-49
2022/06/08 00:04:05;;;;;;;;;;;16.60;57.40;;;;;;5115581;28;19911;-52
2022/06/08 00:06:32;;;;;;;;;;;16.70;56.80;;;;;;5092181;28;19928;-46
2022/06/08 00:08:58;;;;;;;;;;;16.60;56.80;;;;;;5077277;28;19925;-48
2022/06/08 00:11:25;;;;;;;;;;;16.70;55.20;;;;;;5054175;28;19915;-47
2022/06/08 00:13:52;;;;;;;;;;;16.80;58.60;;;;;;5078258;28;19947;-48
2022/06/08 00:16:19;;;;;;;;;;;16.90;57.60;;;;;;5077041;28;19916;-53
2022/06/08 00:18:46;;;;;;;;;;;16.80;57.50;;;;;;5072658;28;19958;-45
2022/06/08 00:21:13;;;;;;;;;;;17.00;53.60;;;;;;5076353;28;19924;-54
2022/06/08 00:23:41;;;;;;;;;;;16.90;60.20;;;;;;5074749;28;19908;-47
2022/06/08 00:26:08;;;;;;;;;;;17.10;58.50;;;;;;5073598;28;20102;-50
2022/06/08 00:28:35;;;;;;;;;;;17.20;56.30;;;;;;5073346;28;20286;-53
2022/06/08 00:31:05;;;;;;;;;;;16.90;58.60;;;;;;5073258;28;19915;-53
2022/06/08 00:33:32;;;;;;;;;;;16.90;52.70;;;;;;5071326;28;19995;-50
2022/06/08 00:35:59;;;;;;;;;;;17.10;52.70;;;;;;5072331;28;20008;-47
2022/06/08 00:38:25;;;;;;;;;;;17.20;55.40;;;;;;5072046;28;20385;-53
2022/06/08 00:41:03;;;;;;;;;;;17.30;53.50;;;;;;5069885;28;19966;-48
2022/06/08 00:43:30;;;;;;;;;;;17.20;52.10;;;;;;5070817;28;19927;-50
2022/06/08 00:45:57;;;;;;;;;;;17.20;52.50;;;;;;5070151;28;21473;-54
2022/06/08 00:48:26;;;;;;;;;;;17.40;57.30;;;;;;5069308;28;19962;-47
2022/06/08 00:50:54;;;;;;;;;;;17.30;52.70;;;;;;5070592;28;19921;-53
2022/06/08 00:53:31;;;;;;;;;;;17.60;53.10;;;;;;5072679;28;20363;-44
2022/06/08 00:55:59;;;;;;;;;;;17.90;56.20;;;;;;5074688;28;19916;-40
2022/06/08 00:58:29;;;;;;;;;;;18.10;54.20;;;;;;5075819;28;20335;-50
2022/06/08 01:00:58;;;;;;;;;;;18.30;54.90;;;;;;5071426;28;19916;-48
2022/06/08 01:03:26;;;;;;;;;;;18.40;54.10;;;;;;5066922;28;20289;-48
2022/06/08 01:05:52;;;;;;;;;;;18.40;53.30;;;;;;5071192;28;19912;-41
2022/06/08 01:08:31;;;;;;;;;;;18.50;54.20;;;;;;5092588;28;19950;-41
2022/06/08 01:10:59;;;;;;;;;;;18.60;52.60;;;;;;5084723;28;19913;-50
2022/06/08 01:13:30;;;;;;;;;;;18.50;53.50;;;;;;5092786;28;19953;-51
2022/06/08 01:15:59;;;;;;;;;;;18.60;54.60;;;;;;5092596;28;19944;-55
2022/06/08 01:18:26;;;;;;;;;;;18.80;53.40;;;;;;5092298;28;20359;-48
2022/06/08 01:20:54;;;;;;;;;;;19.10;52.60;;;;;;5092626;28;19916;-59
2022/06/08 01:23:22;;;;;;;;;;;19.20;52.40;;;;;;5092467;28;19908;-50
2022/06/08 01:25:58;;;;;;;;;;;19.40;53.30;;;;;;5093108;28;20297;-50
2022/06/08 01:28:30;;;;;;;;;;;19.70;51.90;;;;;;5093943;28;19953;-47
2022/06/08 01:30:59;;;;;;;;;;;19.90;50.90;;;;;;5093491;28;19999;-56
2022/06/08 01:33:38;;;;;;;;;;;19.90;52.00;;;;;;5093507;28;19908;-55
2022/06/08 01:36:12;;;;;;;;;;;20.00;52.10;;;;;;5092945;28;19922;-51
2022/06/08 01:38:39;;;;;;;;;;;20.00;50.90;;;;;;5093443;28;20346;-57
2022/06/08 01:41:11;;;;;;;;;;;20.20;51.50;;;;;;5093482;28;19971;-59
2022/06/08 01:44:13;;;;;;;;;;;20.20;50.30;;;;;;5093505;28;19912;-58
2022/06/08 01:46:48;;;;;;;;;;;20.30;51.20;;;;;;5050653;28;19994;-51
2022/06/08 01:49:24;;;;;;;;;;;20.40;52.40;;;;;;5087360;28;19934;-47
2022/06/08 01:52:00;;;;;;;;;;;20.40;51.60;;;;;;5093224;28;19916;-51
2022/06/08 01:54:29;;;;;;;;;;;20.50;50.70;;;;;;5092664;28;19977;-54
2022/06/08 01:56:59;;;;;;;;;;;20.70;51.00;;;;;;5093036;28;20375;-48
2022/06/08 01:59:34;;;;;;;;;;;20.70;51.80;;;;;;5093440;28;20373;-46
2022/06/08 02:02:16;;;;;;;;;;;20.90;50.70;;;;;;5092653;28;19920;-43
2022/06/08 02:04:43;;;;;;;;;;;20.90;49.70;;;;;;5092673;28;19908;-52
2022/06/08 02:07:36;;;;;;;;;;;20.90;51.10;;;;;;5092793;28;20330;-49
2022/06/08 02:10:10;;;;;;;;;;;21.00;50.40;;;;;;5084210;28;19940;-45
2022/06/08 02:12:38;;;;;;;;;;;21.10;50.20;;;;;;5092990;28;19961;-55
2022/06/08 02:15:08;;;;;;;;;;;21.10;50.20;;;;;;5093161;28;19977;-49
2022/06/08 02:17:44;;;;;;;;;;;21.20;50.50;;;;;;5093264;28;19965;-50
2022/06/08 02:20:16;;;;;;;;;;;21.20;50.80;;;;;;5093163;28;19916;-48
2022/06/08 02:22:49;;;;;;;;;;;21.20;50.70;;;;;;5092640;28;19977;-47
2022/06/08 02:25:25;;;;;;;;;;;21.30;49.80;;;;;;5093252;28;20362;-48
2022/06/08 02:28:01;;;;;;;;;;;21.40;50.10;;;;;;5092406;28;19914;-47
2022/06/08 02:30:29;;;;;;;;;;;21.40;50.60;;;;;;5092214;28;19908;-42
2022/06/08 02:35:47;;;;;;;;;;;21.50;49.60;;;;;;5093498;28;20369;-51
2022/06/08 02:38:15;;;;;;;;;;;21.60;51.20;;;;;;5093079;28;19953;-48
2022/06/08 02:40:46;;;;;;;;;;;21.60;51.50;;;;;;5125155;28;19916;-47
2022/06/08 02:43:16;;;;;;;;;;;21.80;50.80;;;;;;5092790;28;19912;-50
2022/06/08 02:45:44;;;;;;;;;;;21.60;50.20;;;;;;5092442;28;20015;-43
2022/06/08 02:48:13;;;;;;;;;;;21.80;51.10;;;;;;5092515;28;19912;-41
2022/06/08 02:50:53;;;;;;;;;;;21.80;50.40;;;;;;5089681;28;20274;-47
2022/06/08 02:53:20;;;;;;;;;;;22.10;49.00;;;;;;5096015;28;19912;-54
2022/06/08 02:56:08;;;;;;;;;;;22.10;49.20;;;;;;5099091;28;19948;-49
2022/06/08 02:58:35;;;;;;;;;;;22.10;49.50;;;;;;5083040;28;19912;-53
2022/06/08 03:01:04;;;;;;;;;;;22.00;50.00;;;;;;5096560;28;19916;-48
2022/06/08 03:03:40;;;;;;;;;;;22.00;48.70;;;;;;5096941;28;19964;-45
2022/06/08 03:06:09;;;;;;;;;;;22.00;47.80;;;;;;5091801;28;19927;-45
2022/06/08 03:08:38;;;;;;;;;;;22.10;48.60;;;;;;5082748;28;20290;-47
2022/06/08 03:11:06;;;;;;;;;;;21.40;49.00;;;;;;5107210;28;19919;-51
2022/06/08 03:13:52;;;;;;;;;;;20.60;46.50;;;;;;5097244;28;19955;-45
2022/06/08 03:16:31;;;;;;;;;;;20.20;44.30;;;;;;5096247;28;20283;-51
2022/06/08 03:18:58;;;;;;;;;;;19.90;47.50;;;;;;5095963;28;19973;-54
2022/06/08 03:21:25;;;;;;;;;;;20.20;45.70;;;;;;5095100;28;19924;-51
2022/06/08 03:23:53;;;;;;;;;;;19.90;48.70;;;;;;5095794;28;19923;-46
2022/06/08 03:26:20;;;;;;;;;;;19.90;52.90;;;;;;5095820;28;19909;-52
2022/06/08 03:28:47;;;;;;;;;;;19.90;50.40;;;;;;5091841;28;20396;-45
2022/06/08 03:31:14;;;;;;;;;;;20.00;47.80;;;;;;5076468;28;19944;-48
2022/06/08 03:33:41;;;;;;;;;;;20.00;48.30;;;;;;5075730;28;19995;-45
2022/06/08 03:36:07;;;;;;;;;;;20.00;48.10;;;;;;5075772;28;19913;-49
2022/06/08 03:38:35;;;;;;;;;;;20.00;47.50;;;;;;5077019;28;19955;-44
2022/06/08 03:41:01;;;;;;;;;;;19.90;45.60;;;;;;5094937;28;19920;-54
2022/06/08 03:43:28;;;;;;;;;;;20.00;45.10;;;;;;5109083;28;19912;-50
2022/06/08 03:45:58;;;;;;;;;;;20.00;51.00;;;;;;5086781;28;19920;-54
2022/06/08 03:48:25;;;;;;;;;;;20.10;48.40;;;;;;5075309;28;20228;-51
2022/06/08 03:50:53;;;;;;;;;;;19.40;45.00;;;;;;5077770;28;19923;-54
2022/06/08 03:53:23;;;;;;;;;;;19.40;48.20;;;;;;5083118;28;19908;-55
2022/06/08 03:55:51;;;;;;;;;;;19.40;45.70;;;;;;5082926;28;19912;-52
2022/06/08 03:58:18;;;;;;;;;;;19.50;49.40;;;;;;5094063;28;19908;-45
2022/06/08 04:00:45;;;;;;;;;;;19.50;46.40;;;;;;5094524;28;20013;-49
2022/06/08 04:03:12;;;;;;;;;;;19.70;49.30;;;;;;5094726;28;19912;-46
2022/06/08 04:05:39;;;;;;;;;;;20.20;52.80;;;;;;5095319;28;19908;-53
2022/06/08 04:08:06;;;;;;;;;;;20.60;51.90;;;;;;5095173;28;19923;-51
2022/06/08 04:10:33;;;;;;;;;;;20.90;51.00;;;;;;5090625;28;19916;-51
2022/06/08 04:13:04;;;;;;;;;;;21.10;51.70;;;;;;5094330;28;20069;-57
2022/06/08 04:15:42;;;;;;;;;;;21.30;51.00;;;;;;5094905;28;19908;-57
2022/06/08 04:18:19;;;;;;;;;;;21.30;49.10;;;;;;5095282;28;19908;-48
2022/06/08 04:20:48;;;;;;;;;;;21.50;49.10;;;;;;5094239;28;19923;-55
2022/06/08 04:23:15;;;;;;;;;;;21.70;49.40;;;;;;5095572;28;20347;-48
2022/06/08 04:25:42;;;;;;;;;;;21.90;50.60;;;;;;5095054;28;19948;-44
2022/06/08 04:28:09;;;;;;;;;;;21.90;49.10;;;;;;5095051;28;19918;-41
2022/06/08 04:30:36;;;;;;;;;;;22.00;50.70;;;;;;5095234;28;19947;-46
2022/06/08 04:33:03;;;;;;;;;;;22.00;50.00;;;;;;5095137;28;19948;-54
2022/06/08 04:35:30;;;;;;;;;;;21.90;51.00;;;;;;5094513;28;19908;-56
2022/06/08 04:37:57;;;;;;;;;;;21.90;48.70;;;;;;5095022;28;19912;-52
2022/06/08 04:40:24;;;;;;;;;;;22.00;50.10;;;;;;5094498;28;19959;-54
2022/06/08 04:42:51;;;;;;;;;;;22.00;49.40;;;;;;5095078;28;20278;-55
2022/06/08 04:45:18;;;;;;;;;;;22.10;48.60;;;;;;5094750;28;20316;-52
2022/06/08 04:47:45;;;;;;;;;;;22.10;50.30;;;;;;5094019;28;20275;-51
2022/06/08 04:50:12;;;;;;;;;;;22.00;50.60;;;;;;5094717;28;19908;-52
2022/06/08 04:52:38;;;;;;;;;;;22.10;51.10;;;;;;5094326;28;19908;-54
2022/06/08 04:55:06;;;;;;;;;;;22.00;50.60;;;;;;5094431;28;19997;-54
2022/06/08 04:57:36;;;;;;;;;;;22.00;49.80;;;;;;5094094;28;19912;-50
2022/06/08 05:00:06;;;;;;;;;;;22.10;51.40;;;;;;5093980;28;19918;-51
2022/06/08 05:02:45;;;;;;;;;;;22.20;49.70;;;;;;5093056;28;19908;-53
2022/06/08 05:05:13;;;;;;;;;;;22.30;48.70;;;;;;5093675;28;19966;-58
2022/06/08 05:07:40;;;;;;;;;;;22.10;50.00;;;;;;5093902;28;19920;-53
2022/06/08 05:10:08;;;;;;;;;;;22.10;48.30;;;;;;5094481;28;19931;-53
2022/06/08 05:12:36;;;;;;;;;;;22.10;50.10;;;;;;5093814;28;19912;-50
2022/06/08 05:15:06;;;;;;;;;;;22.00;48.70;;;;;;5093516;28;19908;-58
2022/06/08 05:17:33;;;;;;;;;;;21.80;50.00;;;;;;5094126;28;19915;-58
2022/06/08 05:19:59;;;;;;;;;;;21.40;50.00;;;;;;5092776;28;19919;-47
2022/06/08 05:22:26;;;;;;;;;;;21.20;50.20;;;;;;5093838;28;20391;-53
2022/06/08 05:24:54;;;;;;;;;;;21.00;51.40;;;;;;5093995;28;19955;-45
2022/06/08 05:27:23;;;;;;;;;;;20.80;51.30;;;;;;5093978;28;19908;-53
2022/06/08 05:29:50;;;;;;;;;;;20.60;51.40;;;;;;5087794;28;19950;-48
2022/06/08 05:32:18;;;;;;;;;;;20.10;54.60;;;;;;5094847;28;20011;-48
2022/06/08 05:34:45;;;;;;;;;;;19.80;52.10;;;;;;5090850;28;20391;-53
2022/06/08 05:37:11;;;;;;;;;;;19.60;52.70;;;;;;5090730;28;19908;-52
2022/06/08 05:39:38;;;;;;;;;;;19.60;45.00;;;;;;5089502;28;19915;-55
2022/06/08 05:42:05;;;;;;;;;;;19.30;50.40;;;;;;5089398;28;19912;-51
2022/06/08 05:44:32;;;;;;;;;;;18.90;51.20;;;;;;5090375;28;20384;-43
2022/06/08 05:46:59;;;;;;;;;;;18.70;49.40;;;;;;5089849;28;20278;-50
2022/06/08 05:49:26;;;;;;;;;;;18.70;48.80;;;;;;5091322;28;19916;-56
2022/06/08 05:51:53;;;;;;;;;;;18.50;53.80;;;;;;5088489;28;19998;-46
2022/06/08 05:54:20;;;;;;;;;;;18.40;54.60;;;;;;5090705;28;20318;-48
2022/06/08 05:56:46;;;;;;;;;;;18.10;50.40;;;;;;5089234;28;19943;-46
2022/06/08 05:59:13;;;;;;;;;;;17.90;50.90;;;;;;5089762;28;20137;-49
2022/06/08 06:01:40;;;;;;;;;;;17.70;52.90;;;;;;5088234;28;19916;-57
2022/06/08 06:04:07;;;;;;;;;;;17.70;49.80;;;;;;5090706;28;20029;-52
2022/06/08 06:06:34;;;;;;;;;;;17.60;48.80;;;;;;5093050;28;19908;-58
2022/06/08 06:09:03;;;;;;;;;;;17.40;51.30;;;;;;5092341;28;19927;-60
2022/06/08 06:11:30;;;;;;;;;;;17.40;53.10;;;;;;5093102;28;19919;-48
2022/06/08 06:13:57;;;;;;;;;;;17.30;49.50;;;;;;5092992;28;19908;-48
2022/06/08 06:16:25;;;;;;;;;;;17.20;50.20;;;;;;5092795;28;19912;-51
2022/06/08 06:18:51;;;;;;;;;;;17.30;55.10;;;;;;5092280;28;19914;-53
2022/06/08 06:21:28;;;;;;;;;;;17.20;50.20;;;;;;5092725;28;20351;-51
2022/06/08 06:23:58;;;;;;;;;;;17.30;51.40;;;;;;5092974;28;19954;-45
2022/06/08 06:26:25;;;;;;;;;;;16.90;49.90;;;;;;5091273;28;19912;-57
2022/06/08 06:28:52;;;;;;;;;;;17.00;52.90;;;;;;5092238;28;19999;-56
2022/06/08 06:31:23;;;;;;;;;;;17.00;51.80;;;;;;5091714;28;19912;-56
2022/06/08 06:33:49;;;;;;;;;;;16.70;53.90;;;;;;5074055;28;19908;-46
2022/06/08 06:36:16;;;;;;;;;;;16.80;50.30;;;;;;5092485;28;20388;-49
2022/06/08 06:38:43;;;;;;;;;;;16.60;56.00;;;;;;5092220;28;19912;-47
2022/06/08 06:41:13;;;;;;;;;;;16.70;53.70;;;;;;5092492;28;19935;-52
2022/06/08 06:43:40;;;;;;;;;;;16.60;54.60;;;;;;5092224;28;19936;-52
2022/06/08 06:46:06;;;;;;;;;;;16.60;55.10;;;;;;5092418;28;19944;-50
2022/06/08 06:48:36;;;;;;;;;;;16.50;53.50;;;;;;5092042;28;19940;-53
2022/06/08 06:51:04;;;;;;;;;;;16.40;51.40;;;;;;5074313;28;19916;-49
2022/06/08 06:53:30;;;;;;;;;;;16.50;52.90;;;;;;5092418;28;19908;-50
2022/06/08 06:55:57;;;;;;;;;;;16.40;53.80;;;;;;5092236;28;19908;-52
2022/06/08 06:58:24;;;;;;;;;;;16.50;56.40;;;;;;5091872;28;20385;-47
2022/06/08 07:00:51;;;;;;;;;;;16.50;53.60;;;;;;5092046;28;19917;-51
2022/06/08 07:03:17;;;;;;;;;;;16.60;59.70;;;;;;5092409;28;19909;-52
2022/06/08 07:05:44;;;;;;;;;;;16.70;59.90;;;;;;5091596;28;19912;-53
2022/06/08 07:08:11;;;;;;;;;;;16.70;58.60;;;;;;5091929;28;19920;-52
2022/06/08 07:10:38;;;;;;;;;;;16.80;59.90;;;;;;5092015;28;19993;-56
2022/06/08 07:13:05;;;;;;;;;;;16.80;58.80;;;;;;5091895;28;20295;-51
2022/06/08 07:15:32;;;;;;;;;;;16.90;58.90;;;;;;5092004;28;19984;-55
2022/06/08 07:17:58;;;;;;;;;;;16.90;59.00;;;;;;5091638;28;20014;-54
2022/06/08 07:20:25;;;;;;;;;;;16.90;58.70;;;;;;5091009;28;20015;-49
2022/06/08 07:22:52;;;;;;;;;;;16.90;58.30;;;;;;5091796;28;19915;-53
2022/06/08 07:25:19;;;;;;;;;;;16.90;57.60;;;;;;5092134;28;20047;-52
2022/06/08 07:27:49;;;;;;;;;;;16.90;58.00;;;;;;5091295;28;19908;-48
2022/06/08 07:30:16;;;;;;;;;;;16.90;58.20;;;;;;5091925;28;19959;-51
2022/06/08 07:32:43;;;;;;;;;;;16.90;58.30;;;;;;5091857;28;19909;-54
2022/06/08 07:35:11;;;;;;;;;;;16.80;57.80;;;;;;5091980;28;20359;-51
2022/06/08 07:37:38;;;;;;;;;;;16.80;57.10;;;;;;5073559;28;19908;-51
2022/06/08 07:40:05;;;;;;;;;;;16.70;56.10;;;;;;5095596;28;19919;-56
2022/06/08 07:42:31;;;;;;;;;;;16.70;57.50;;;;;;5094822;28;19956;-54
2022/06/08 07:44:58;;;;;;;;;;;16.70;57.60;;;;;;5095844;28;20220;-56
2022/06/08 07:47:25;;;;;;;;;;;16.60;57.70;;;;;;5095611;28;19908;-55
2022/06/08 07:49:52;;;;;;;;;;;16.60;57.60;;;;;;5094782;28;19916;-48
2022/06/08 07:52:20;;;;;;;;;;;16.70;57.90;;;;;;5095758;28;19915;-53
2022/06/08 07:54:47;;;;;;;;;;;16.60;57.60;;;;;;5077491;28;20037;-56
2022/06/08 07:57:16;;;;;;;;;;;16.60;57.40;;;;;;5094623;28;19912;-54
2022/06/08 07:59:43;;;;;;;;;;;16.60;57.50;;;;;;5095294;28;19908;-53
2022/06/08 08:02:11;;;;;;;;;;;16.60;57.80;;;;;;5095032;28;20014;-48
2022/06/08 08:04:38;;;;;;;;;;;16.60;57.90;;;;;;5094507;28;20304;-52
2022/06/08 08:07:05;;;;;;;;;;;16.60;58.20;;;;;;5094386;28;20007;-52
2022/06/08 08:09:34;;;;;;;;;;;16.60;57.20;;;;;;5095223;28;19952;-45
2022/06/08 08:12:03;;;;;;;;;;;16.40;57.60;;;;;;5095814;28;20274;-51
2022/06/08 08:14:36;;;;;;;;;;;16.40;57.10;;;;;;5096037;28;19995;-49
2022/06/08 08:17:04;;;;;;;;;;;16.40;57.40;;;;;;5096239;28;19953;-47
2022/06/08 08:19:32;;;;;;;;;;;16.40;58.40;;;;;;5095887;28;19908;-44
2022/06/08 08:21:59;;;;;;;;;;;16.30;58.40;;;;;;5095137;28;19912;-52
2022/06/08 08:24:25;;;;;;;;;;;16.30;58.80;;;;;;5094773;28;19987;-53
2022/06/08 08:26:52;;;;;;;;;;;16.30;59.00;;;;;;5094609;28;19908;-57
2022/06/08 08:29:19;;;;;;;;;;;16.20;59.10;;;;;;5076051;28;20314;-51
2022/06/08 08:31:47;;;;;;;;;;;16.20;59.20;;;;;;5094984;28;19908;-52
2022/06/08 08:34:13;;;;;;;;;;;16.10;59.50;;;;;;5094845;28;20374;-52
2022/06/08 08:36:40;;;;;;;;;;;16.10;59.70;;;;;;5094608;28;19908;-52
2022/06/08 08:39:07;;;;;;;;;;;16.10;59.90;;;;;;5092355;28;20394;-47
2022/06/08 08:44:27;;;;;;;;;;;16.00;60.50;;;;;;5069131;28;20247;-56
2022/06/08 08:46:58;;;;;;;;;;;16.00;60.50;;;;;;5071249;28;19927;-54
2022/06/08 08:49:26;;;;;;;;;;;16.00;60.70;;;;;;5078134;28;19970;-54
2022/06/08 08:51:58;;;;;;;;;;;16.00;61.60;;;;;;5073985;28;19908;-51
2022/06/08 08:54:27;;;;;;;;;;;15.90;61.20;;;;;;5074699;28;19956;-58
2022/06/08 08:56:56;;;;;;;;;;;15.90;61.20;;;;;;5056650;28;19908;-58
2022/06/08 08:59:24;;;;;;;;;;;15.90;61.30;;;;;;5074428;28;19959;-51
2022/06/08 09:01:53;;;;;;;;;;;15.90;61.50;;;;;;5073928;28;19923;-58
2022/06/08 09:04:31;;;;;;;;;;;15.90;61.50;;;;;;5072907;28;19909;-48
2022/06/08 09:06:58;;;;;;;;;;;15.90;62.20;;;;;;5054200;28;19916;-50
2022/06/08 09:09:30;;;;;;;;;;;15.80;62.00;;;;;;5054986;28;19920;-58
2022/06/08 09:11:57;;;;;;;;;;;15.90;62.10;;;;;;5072358;28;19915;-55
2022/06/08 09:14:26;;;;;;;;;;;15.80;62.30;;;;;;5073907;28;20066;-45
2022/06/08 09:17:09;;;;;;;;;;;15.80;63.60;;;;;;5074254;28;19908;-50
2022/06/08 09:19:43;;;;;;;;;;;15.80;63.90;;;;;;5056752;28;19909;-55
2022/06/08 09:22:10;;;;;;;;;;;15.80;65.50;;;;;;5074212;28;20387;-50
2022/06/08 09:24:40;;;;;;;;;;;15.80;65.70;;;;;;5073353;28;19909;-50
2022/06/08 09:27:17;;;;;;;;;;;15.80;66.60;;;;;;5073504;28;19915;-52
2022/06/08 09:29:59;;;;;;;;;;;15.80;68.10;;;;;;5052745;28;20306;-54
2022/06/08 09:32:28;;;;;;;;;;;15.90;68.60;;;;;;5054045;28;19908;-47
2022/06/08 09:34:56;;;;;;;;;;;15.80;69.90;;;;;;5054073;28;19992;-56
2022/06/08 09:37:24;;;;;;;;;;;15.90;71.50;;;;;;5052615;28;20394;-56
2022/06/08 09:39:52;;;;;;;;;;;15.90;70.20;;;;;;5073511;28;19916;-55
2022/06/08 09:42:18;;;;;;;;;;;15.90;71.10;;;;;;5070020;28;19912;-51
2022/06/08 09:44:57;;;;;;;;;;;15.90;72.60;;;;;;5073716;28;19908;-49
2022/06/08 09:53:17;;;;;;;;;;;16.00;72.00;;;;;;5066870;28;19916;-57
2022/06/08 09:55:59;;;;;;;;;;;16.10;72.70;;;;;;5069351;28;19917;-53
2022/06/08 09:58:26;;;;;;;;;;;16.00;73.40;;;;;;5064451;28;20380;-50
2022/06/08 10:00:55;;;;;;;;;;;16.10;74.80;;;;;;5068748;28;19981;-45
2022/06/08 10:03:37;;;;;;;;;;;16.10;75.60;;;;;;5053889;28;19947;-55
2022/06/08 10:06:19;;;;;;;;;;;16.10;75.70;;;;;;5071604;28;19958;-49
2022/06/08 10:08:45;;;;;;;;;;;16.10;76.50;;;;;;5084061;28;20441;-49
2022/06/08 10:11:41;;;;;;;;;;;16.10;76.90;;;;;;5091472;28;19912;-52
2022/06/08 10:14:21;;;;;;;;;;;16.10;77.90;;;;;;5091438;28;19914;-55
2022/06/08 10:16:51;;;;;;;;;;;16.10;78.10;;;;;;5090074;28;19915;-49
2022/06/08 10:19:24;;;;;;;;;;;16.00;78.00;;;;;;5091316;28;20263;-47
2022/06/08 10:21:52;;;;;;;;;;;16.00;78.50;;;;;;5091265;28;20373;-51
2022/06/08 10:24:22;;;;;;;;;;;16.00;79.00;;;;;;5089676;28;20018;-55
2022/06/08 10:27:08;;;;;;;;;;;15.90;77.80;;;;;;5091804;28;19916;-51
2022/06/08 10:29:43;;;;;;;;;;;15.90;77.70;;;;;;5084646;28;19916;-51
2022/06/08 10:32:09;;;;;;;;;;;15.90;79.10;;;;;;5092806;28;19908;-47
2022/06/08 10:34:36;;;;;;;;;;;15.90;78.40;;;;;;5107218;28;19912;-51
2022/06/08 10:37:24;;;;;;;;;;;15.90;78.60;;;;;;5112843;28;20271;-56
2022/06/08 10:39:51;;;;;;;;;;;15.80;78.40;;;;;;5112840;28;19908;-55
2022/06/08 10:42:48;;;;;;;;;;;15.80;78.20;;;;;;5107409;28;20371;-59
2022/06/08 10:45:23;;;;;;;;;;;15.70;78.20;;;;;;5090971;28;19957;-58
2022/06/08 10:47:56;;;;;;;;;;;15.70;78.40;;;;;;5090180;28;20312;-47
2022/06/08 10:50:28;;;;;;;;;;;15.70;77.60;;;;;;5090395;28;19978;-59
2022/06/08 10:54:53;;;;;;;;;;;15.60;78.50;;;;;;5089948;28;20462;-50
2022/06/08 10:55:42;;;;;;;;;;;15.60;78.60;;;;;;5091115;28;19908;-58
2022/06/08 10:58:16;;;;;;;;;;;15.60;78.80;;;;;;5092200;28;20432;-53
2022/06/08 11:01:01;;;;;;;;;;;15.60;78.60;;;;;;5091766;28;20002;-46
2022/06/08 11:03:40;;;;;;;;;;;15.50;78.60;;;;;;5091039;28;19926;-57
2022/06/08 11:06:32;;;;;;;;;;;15.40;78.60;;;;;;5090668;28;19999;-54
2022/06/08 11:09:03;;;;;;;;;;;15.40;78.70;;;;;;5090563;28;20370;-52
2022/06/08 11:11:41;;;;;;;;;;;15.30;78.50;;;;;;5090810;28;19908;-51
2022/06/08 11:14:28;;;;;;;;;;;15.30;78.40;;;;;;5093587;28;19908;-56
2022/06/08 11:16:57;;;;;;;;;;;15.30;78.50;;;;;;5096647;28;19919;-51
2022/06/08 11:19:24;;;;;;;;;;;15.20;78.30;;;;;;5097008;28;19908;-55
2022/06/08 11:21:57;;;;;;;;;;;15.20;78.10;;;;;;5096479;28;20007;-60
2022/06/08 11:24:29;;;;;;;;;;;15.10;77.90;;;;;;5096457;28;19920;-44
2022/06/08 11:27:15;;;;;;;;;;;15.10;77.90;;;;;;5096969;28;19915;-58
2022/06/08 11:29:46;;;;;;;;;;;15.10;78.00;;;;;;5096682;28;19916;-57
2022/06/08 11:32:24;;;;;;;;;;;15.00;77.60;;;;;;5096792;28;19954;-53
2022/06/08 11:35:00;;;;;;;;;;;15.00;77.50;;;;;;5096503;28;19908;-57
2022/06/08 11:37:35;;;;;;;;;;;15.00;77.50;;;;;;5096577;28;19908;-61
2022/06/08 11:40:20;;;;;;;;;;;14.90;77.50;;;;;;5096386;28;19912;-57
2022/06/08 11:42:53;;;;;;;;;;;14.90;77.50;;;;;;5096279;28;19912;-60
2022/06/08 11:45:35;;;;;;;;;;;14.90;77.20;;;;;;5096479;28;20305;-55
2022/06/08 11:48:16;;;;;;;;;;;14.80;77.20;;;;;;5096138;28;19916;-60
2022/06/08 11:50:44;;;;;;;;;;;14.80;77.10;;;;;;5096269;28;19912;-55
2022/06/08 11:53:19;;;;;;;;;;;14.80;77.10;;;;;;5095322;28;19912;-57
2022/06/08 11:55:51;;;;;;;;;;;14.80;77.10;;;;;;5095766;28;20282;-54
2022/06/08 11:58:23;;;;;;;;;;;14.70;76.80;;;;;;5096072;28;20018;-58
2022/06/08 12:00:51;;;;;;;;;;;14.70;77.00;;;;;;5096136;28;19912;-47
2022/06/08 12:03:17;;;;;;;;;;;14.70;76.80;;;;;;5096045;28;19909;-45
2022/06/08 12:05:51;;;;;;;;;;;14.70;76.70;;;;;;5095766;28;19912;-49
2022/06/08 12:08:26;;;;;;;;;;;14.70;76.60;;;;;;5095809;28;19930;-55
2022/06/08 12:10:54;;;;;;;;;;;14.60;76.50;;;;;;5095740;28;19961;-43
2022/06/08 12:13:22;;;;;;;;;;;14.60;76.50;;;;;;5095373;28;19914;-49
2022/06/08 12:15:51;;;;;;;;;;;14.60;76.20;;;;;;5095552;28;19908;-57
2022/06/08 12:18:37;;;;;;;;;;;14.60;76.30;;;;;;5095738;28;20029;-49
2022/06/08 12:21:12;;;;;;;;;;;14.50;76.30;;;;;;5095718;28;20310;-49
2022/06/08 12:23:43;;;;;;;;;;;14.50;76.30;;;;;;5094398;28;19914;-51
2022/06/08 12:26:17;;;;;;;;;;;14.50;76.20;;;;;;5093959;28;19908;-47
2022/06/08 12:28:45;;;;;;;;;;;14.50;76.30;;;;;;5095190;28;20311;-49
2022/06/08 12:31:25;;;;;;;;;;;14.50;76.20;;;;;;5095614;28;19934;-51
2022/06/08 12:33:52;;;;;;;;;;;14.40;76.00;;;;;;5095306;28;19908;-54
2022/06/08 12:36:21;;;;;;;;;;;14.40;76.00;;;;;;5095355;28;19918;-54
2022/06/08 12:39:15;;;;;;;;;;;14.40;76.10;;;;;;5094792;28;19973;-52
2022/06/08 12:41:47;;;;;;;;;;;14.40;76.10;;;;;;5093944;28;20019;-55
2022/06/08 12:44:23;;;;;;;;;;;14.30;75.90;;;;;;5095046;28;19908;-53
2022/06/08 12:46:58;;;;;;;;;;;14.30;75.70;;;;;;5095231;28;19914;-59
2022/06/08 12:49:39;;;;;;;;;;;14.30;75.70;;;;;;5095116;28;19974;-55
2022/06/08 12:52:14;;;;;;;;;;;14.30;75.70;;;;;;5095287;28;19926;-44
2022/06/08 12:54:41;;;;;;;;;;;14.30;75.70;;;;;;5094804;28;19908;-49
2022/06/08 12:57:22;;;;;;;;;;;14.20;75.60;;;;;;5094955;28;20309;-52
2022/06/08 12:59:51;;;;;;;;;;;14.20;75.70;;;;;;5094548;28;19961;-50
2022/06/08 13:02:25;;;;;;;;;;;14.20;75.60;;;;;;5094993;28;19961;-48
2022/06/08 13:04:52;;;;;;;;;;;14.20;75.60;;;;;;5095400;28;19908;-58
2022/06/08 13:07:20;;;;;;;;;;;14.20;75.40;;;;;;5094829;28;20282;-48
2022/06/08 13:09:48;;;;;;;;;;;14.20;75.50;;;;;;5094928;28;19927;-50
2022/06/08 13:12:19;;;;;;;;;;;14.10;75.40;;;;;;5094702;28;20412;-42
2022/06/08 13:14:45;;;;;;;;;;;14.10;75.40;;;;;;5094665;28;19908;-55
2022/06/08 13:17:12;;;;;;;;;;;14.10;75.30;;;;;;5094700;28;19943;-49
2022/06/08 13:19:39;;;;;;;;;;;14.10;75.40;;;;;;5094876;28;19995;-48
2022/06/08 13:22:06;;;;;;;;;;;14.10;75.40;;;;;;5094827;28;19916;-43
2022/06/08 13:24:33;;;;;;;;;;;14.10;75.20;;;;;;5092820;28;19922;-52
2022/06/08 13:27:00;;;;;;;;;;;14.00;75.10;;;;;;5114861;28;20433;-45
2022/06/08 13:29:27;;;;;;;;;;;14.00;75.10;;;;;;5115085;28;19908;-54
2022/06/08 13:31:54;;;;;;;;;;;14.00;75.00;;;;;;5114992;28;19915;-45
2022/06/08 13:34:20;;;;;;;;;;;14.00;74.90;;;;;;5114878;28;20346;-46
2022/06/08 13:36:57;;;;;;;;;;;14.00;74.80;;;;;;5114462;28;19915;-49
2022/06/08 13:39:35;;;;;;;;;;;14.00;74.90;;;;;;5114781;28;20081;-44
2022/06/08 13:42:12;;;;;;;;;;;14.00;74.80;;;;;;5114784;28;19916;-56
2022/06/08 13:44:40;;;;;;;;;;;13.90;74.70;;;;;;5114710;28;20004;-56
2022/06/08 13:47:21;;;;;;;;;;;13.90;74.60;;;;;;5114934;28;19908;-47
2022/06/08 13:49:55;;;;;;;;;;;13.90;74.70;;;;;;5114968;28;20308;-51
2022/06/08 13:52:25;;;;;;;;;;;13.90;74.60;;;;;;5115047;28;19908;-47
2022/06/08 13:54:54;;;;;;;;;;;13.90;74.50;;;;;;5114629;28;20401;-56
2022/06/08 13:57:22;;;;;;;;;;;13.90;74.60;;;;;;5114680;28;20011;-50
2022/06/08 13:59:49;;;;;;;;;;;13.90;74.50;;;;;;5113244;28;19908;-44
2022/06/08 14:02:16;;;;;;;;;;;13.80;74.50;;;;;;5114335;28;19957;-50
2022/06/08 14:04:43;;;;;;;;;;;13.80;74.50;;;;;;5114247;28;19908;-49
2022/06/08 14:13:02;;;;;;;;;;;13.80;74.30;;;;;;5114427;28;20273;-48
2022/06/08 14:15:29;;;;;;;;;;;13.70;74.30;;;;;;5114582;28;19915;-44
2022/06/08 14:17:56;;;;;;;;;;;13.70;74.20;;;;;;5114426;28;19995;-46
2022/06/08 14:20:29;;;;;;;;;;;13.70;74.20;;;;;;5113808;28;19964;-53
2022/06/08 14:22:56;;;;;;;;;;;13.70;74.30;;;;;;5114341;28;19908;-53
2022/06/08 14:25:23;;;;;;;;;;;13.70;74.30;;;;;;5113889;28;19960;-51
2022/06/08 14:27:50;;;;;;;;;;;13.70;74.20;;;;;;5112760;28;19915;-49
2022/06/08 14:30:18;;;;;;;;;;;13.70;74.30;;;;;;5114379;28;19939;-44
2022/06/08 14:32:52;;;;;;;;;;;13.60;74.20;;;;;;5114073;28;19991;-54
2022/06/08 14:35:29;;;;;;;;;;;13.60;74.10;;;;;;5114155;28;19916;-51
2022/06/08 14:37:57;;;;;;;;;;;13.60;74.10;;;;;;5114046;28;19908;-58
2022/06/08 14:40:26;;;;;;;;;;;13.60;74.10;;;;;;5113965;28;20035;-52
2022/06/08 14:42:53;;;;;;;;;;;13.70;74.10;;;;;;5114052;28;20358;-44
2022/06/08 14:45:21;;;;;;;;;;;13.60;74.00;;;;;;5114190;28;19961;-45
2022/06/08 14:47:48;;;;;;;;;;;13.60;74.00;;;;;;5113171;28;20382;-56
2022/06/08 14:50:16;;;;;;;;;;;13.60;74.00;;;;;;5113698;28;20038;-54
2022/06/08 14:52:43;;;;;;;;;;;13.60;74.00;;;;;;5112351;28;19982;-55